sensor_id;sensor_type;location;lat;lon;timestamp;P1;durP1;ratioP1;P2;durP2;ratioP2
38567;SDS011;24338;48.280;10.970;2023-04-25T00:01:55;4.53;;;2.67;;
38567;SDS011;24338;48.280;10.970;2023-04-25T00:04:22;4.47;;;2.50;;
38567;SDS011;24338;48.280;10.970;2023-04-25T00:06:50;5.95;;;3.05;;
38567;SDS011;24338;48.280;10.970;2023-04-25T00:09:18;4.70;;;3.10;;
38567;SDS011;24338;48.280;10.970;2023-04-25T00:11:45;4.60;;;2.78;;
38567;SDS011;24338;48.280;10.970;2023-04-25T00:14:12;7.22;;;2.70;;
38567;SDS011;24338;48.280;10.970;2023-04-25T00:16:38;4.32;;;2.28;;
38567;SDS011;24338;48.280;10.970;2023-04-25T00:19:07;4.88;;;2.63;;
38567;SDS011;24338;48.280;10.970;2023-04-25T00:21:35;4.00;;;2.55;;
38567;SDS011;24338;48.280;10.970;2023-04-25T00:24:03;3.50;;;1.98;;
38567;SDS011;24338;48.280;10.970;2023-04-25T00:26:31;5.10;;;2.50;;
38567;SDS011;24338;48.280;10.970;2023-04-25T00:28:57;5.95;;;3.55;;
38567;SDS011;24338;48.280;10.970;2023-04-25T00:31:24;6.40;;;3.00;;
38567;SDS011;24338;48.280;10.970;2023-04-25T00:33:51;4.90;;;2.95;;
38567;SDS011;24338;48.280;10.970;2023-04-25T00:36:19;5.38;;;3.10;;
38567;SDS011;24338;48.280;10.970;2023-04-25T00:38:46;5.75;;;2.75;;
38567;SDS011;24338;48.280;10.970;2023-04-25T00:41:12;5.78;;;2.92;;
38567;SDS011;24338;48.280;10.970;2023-04-25T00:43:40;5.55;;;3.08;;
38567;SDS011;24338;48.280;10.970;2023-04-25T00:46:07;5.78;;;2.97;;
38567;SDS011;24338;48.280;10.970;2023-04-25T00:48:34;4.80;;;3.00;;
38567;SDS011;24338;48.280;10.970;2023-04-25T00:51:01;7.60;;;3.03;;
38567;SDS011;24338;48.280;10.970;2023-04-25T00:53:28;6.20;;;2.65;;
38567;SDS011;24338;48.280;10.970;2023-04-25T00:55:58;5.45;;;2.78;;
38567;SDS011;24338;48.280;10.970;2023-04-25T00:58:25;4.70;;;2.67;;
38567;SDS011;24338;48.280;10.970;2023-04-25T01:00:52;5.22;;;3.38;;
38567;SDS011;24338;48.280;10.970;2023-04-25T01:03:19;4.82;;;2.60;;
38567;SDS011;24338;48.280;10.970;2023-04-25T01:05:47;5.22;;;2.38;;
38567;SDS011;24338;48.280;10.970;2023-04-25T01:08:14;5.38;;;3.35;;
38567;SDS011;24338;48.280;10.970;2023-04-25T01:10:41;5.70;;;3.10;;
38567;SDS011;24338;48.280;10.970;2023-04-25T01:13:08;6.38;;;3.13;;
38567;SDS011;24338;48.280;10.970;2023-04-25T01:15:35;5.03;;;2.92;;
38567;SDS011;24338;48.280;10.970;2023-04-25T01:18:03;4.43;;;3.03;;
38567;SDS011;24338;48.280;10.970;2023-04-25T01:20:31;5.25;;;2.95;;
38567;SDS011;24338;48.280;10.970;2023-04-25T01:22:59;5.13;;;3.10;;
38567;SDS011;24338;48.280;10.970;2023-04-25T01:25:26;4.88;;;2.45;;
38567;SDS011;24338;48.280;10.970;2023-04-25T01:27:53;4.35;;;2.95;;
38567;SDS011;24338;48.280;10.970;2023-04-25T01:30:21;6.88;;;3.20;;
38567;SDS011;24338;48.280;10.970;2023-04-25T01:32:47;5.18;;;3.30;;
38567;SDS011;24338;48.280;10.970;2023-04-25T01:35:15;5.25;;;2.88;;
38567;SDS011;24338;48.280;10.970;2023-04-25T01:37:42;4.88;;;3.08;;
38567;SDS011;24338;48.280;10.970;2023-04-25T01:40:10;8.13;;;2.83;;
38567;SDS011;24338;48.280;10.970;2023-04-25T01:42:39;5.85;;;3.03;;
38567;SDS011;24338;48.280;10.970;2023-04-25T01:45:08;6.50;;;2.95;;
38567;SDS011;24338;48.280;10.970;2023-04-25T01:47:37;5.97;;;3.40;;
38567;SDS011;24338;48.280;10.970;2023-04-25T01:50:06;6.05;;;3.45;;
38567;SDS011;24338;48.280;10.970;2023-04-25T01:52:34;6.90;;;3.05;;
38567;SDS011;24338;48.280;10.970;2023-04-25T01:55:01;5.55;;;3.00;;
38567;SDS011;24338;48.280;10.970;2023-04-25T01:57:28;5.65;;;2.70;;
38567;SDS011;24338;48.280;10.970;2023-04-25T01:59:59;5.50;;;2.70;;
38567;SDS011;24338;48.280;10.970;2023-04-25T02:02:27;4.30;;;2.85;;
38567;SDS011;24338;48.280;10.970;2023-04-25T02:04:54;5.93;;;2.50;;
38567;SDS011;24338;48.280;10.970;2023-04-25T02:07:22;3.35;;;2.20;;
38567;SDS011;24338;48.280;10.970;2023-04-25T02:09:49;4.82;;;2.60;;
38567;SDS011;24338;48.280;10.970;2023-04-25T02:12:16;5.80;;;3.13;;
38567;SDS011;24338;48.280;10.970;2023-04-25T02:14:43;3.53;;;2.33;;
38567;SDS011;24338;48.280;10.970;2023-04-25T02:17:10;5.43;;;2.95;;
38567;SDS011;24338;48.280;10.970;2023-04-25T02:19:39;8.63;;;3.10;;
38567;SDS011;24338;48.280;10.970;2023-04-25T02:22:05;5.18;;;3.60;;
38567;SDS011;24338;48.280;10.970;2023-04-25T02:24:32;6.43;;;3.28;;
38567;SDS011;24338;48.280;10.970;2023-04-25T02:27:00;4.80;;;3.10;;
38567;SDS011;24338;48.280;10.970;2023-04-25T02:29:28;5.28;;;3.20;;
38567;SDS011;24338;48.280;10.970;2023-04-25T02:31:55;6.45;;;3.17;;
38567;SDS011;24338;48.280;10.970;2023-04-25T02:34:22;5.53;;;3.25;;
38567;SDS011;24338;48.280;10.970;2023-04-25T02:36:49;9.15;;;2.90;;
38567;SDS011;24338;48.280;10.970;2023-04-25T02:39:19;5.78;;;3.50;;
38567;SDS011;24338;48.280;10.970;2023-04-25T02:41:48;8.25;;;3.10;;
38567;SDS011;24338;48.280;10.970;2023-04-25T02:44:15;5.40;;;3.15;;
38567;SDS011;24338;48.280;10.970;2023-04-25T02:46:42;6.28;;;2.80;;
38567;SDS011;24338;48.280;10.970;2023-04-25T02:49:09;6.82;;;3.03;;
38567;SDS011;24338;48.280;10.970;2023-04-25T02:51:35;6.80;;;3.05;;
38567;SDS011;24338;48.280;10.970;2023-04-25T02:54:02;4.72;;;2.13;;
38567;SDS011;24338;48.280;10.970;2023-04-25T02:56:30;6.97;;;2.85;;
38567;SDS011;24338;48.280;10.970;2023-04-25T02:58:56;6.35;;;2.67;;
38567;SDS011;24338;48.280;10.970;2023-04-25T03:01:23;5.32;;;3.17;;
38567;SDS011;24338;48.280;10.970;2023-04-25T03:03:50;5.63;;;3.05;;
38567;SDS011;24338;48.280;10.970;2023-04-25T03:06:17;4.22;;;2.53;;
38567;SDS011;24338;48.280;10.970;2023-04-25T03:08:44;7.05;;;2.80;;
38567;SDS011;24338;48.280;10.970;2023-04-25T03:11:11;5.90;;;2.90;;
38567;SDS011;24338;48.280;10.970;2023-04-25T03:13:38;6.47;;;2.45;;
38567;SDS011;24338;48.280;10.970;2023-04-25T03:16:05;5.47;;;2.38;;
38567;SDS011;24338;48.280;10.970;2023-04-25T03:18:32;5.93;;;3.20;;
38567;SDS011;24338;48.280;10.970;2023-04-25T03:20:59;8.02;;;2.80;;
38567;SDS011;24338;48.280;10.970;2023-04-25T03:23:26;5.35;;;2.35;;
38567;SDS011;24338;48.280;10.970;2023-04-25T03:25:53;4.95;;;1.83;;
38567;SDS011;24338;48.280;10.970;2023-04-25T03:28:19;4.38;;;2.10;;
38567;SDS011;24338;48.280;10.970;2023-04-25T03:30:46;4.03;;;1.92;;
38567;SDS011;24338;48.280;10.970;2023-04-25T03:33:13;5.00;;;1.65;;
38567;SDS011;24338;48.280;10.970;2023-04-25T03:35:40;3.35;;;1.15;;
38567;SDS011;24338;48.280;10.970;2023-04-25T03:38:07;2.78;;;1.33;;
38567;SDS011;24338;48.280;10.970;2023-04-25T03:40:34;3.90;;;1.70;;
38567;SDS011;24338;48.280;10.970;2023-04-25T03:43:01;2.83;;;1.13;;
38567;SDS011;24338;48.280;10.970;2023-04-25T03:45:28;6.47;;;1.42;;
38567;SDS011;24338;48.280;10.970;2023-04-25T03:47:54;6.05;;;1.20;;
38567;SDS011;24338;48.280;10.970;2023-04-25T03:50:21;2.60;;;1.15;;
38567;SDS011;24338;48.280;10.970;2023-04-25T03:52:48;3.45;;;1.00;;
38567;SDS011;24338;48.280;10.970;2023-04-25T03:55:16;3.40;;;1.80;;
38567;SDS011;24338;48.280;10.970;2023-04-25T03:57:43;2.80;;;1.20;;
38567;SDS011;24338;48.280;10.970;2023-04-25T04:00:10;3.35;;;1.42;;
38567;SDS011;24338;48.280;10.970;2023-04-25T04:02:37;2.72;;;1.20;;
38567;SDS011;24338;48.280;10.970;2023-04-25T04:05:07;4.32;;;1.45;;
38567;SDS011;24338;48.280;10.970;2023-04-25T04:07:34;3.08;;;1.45;;
38567;SDS011;24338;48.280;10.970;2023-04-25T04:10:06;3.65;;;1.15;;
38567;SDS011;24338;48.280;10.970;2023-04-25T04:12:33;3.20;;;1.48;;
38567;SDS011;24338;48.280;10.970;2023-04-25T04:15:01;7.10;;;1.20;;
38567;SDS011;24338;48.280;10.970;2023-04-25T04:17:29;3.72;;;1.23;;
38567;SDS011;24338;48.280;10.970;2023-04-25T04:19:57;5.07;;;1.38;;
38567;SDS011;24338;48.280;10.970;2023-04-25T04:22:24;4.70;;;1.52;;
38567;SDS011;24338;48.280;10.970;2023-04-25T04:24:51;4.50;;;1.45;;
38567;SDS011;24338;48.280;10.970;2023-04-25T04:27:18;4.78;;;1.50;;
38567;SDS011;24338;48.280;10.970;2023-04-25T04:29:45;4.25;;;1.50;;
38567;SDS011;24338;48.280;10.970;2023-04-25T04:32:13;3.40;;;1.45;;
38567;SDS011;24338;48.280;10.970;2023-04-25T04:34:40;2.50;;;1.38;;
38567;SDS011;24338;48.280;10.970;2023-04-25T04:37:08;3.92;;;1.55;;
38567;SDS011;24338;48.280;10.970;2023-04-25T04:39:37;2.53;;;1.33;;
38567;SDS011;24338;48.280;10.970;2023-04-25T04:42:04;3.70;;;1.35;;
38567;SDS011;24338;48.280;10.970;2023-04-25T04:48:12;3.58;;;1.42;;
38567;SDS011;24338;48.280;10.970;2023-04-25T04:50:56;3.55;;;1.80;;
38567;SDS011;24338;48.280;10.970;2023-04-25T04:53:39;3.03;;;1.70;;
38567;SDS011;24338;48.280;10.970;2023-04-25T04:56:31;5.45;;;2.03;;
38567;SDS011;24338;48.280;10.970;2023-04-25T04:59:13;6.65;;;2.97;;
38567;SDS011;24338;48.280;10.970;2023-04-25T05:01:57;4.07;;;2.05;;
38567;SDS011;24338;48.280;10.970;2023-04-25T05:05:09;4.30;;;2.38;;
38567;SDS011;24338;48.280;10.970;2023-04-25T05:09:00;4.07;;;2.30;;
38567;SDS011;24338;48.280;10.970;2023-04-25T05:19:31;6.05;;;2.30;;
38567;SDS011;24338;48.280;10.970;2023-04-25T05:22:59;4.43;;;2.30;;
38567;SDS011;24338;48.280;10.970;2023-04-25T05:25:26;7.03;;;2.45;;
38567;SDS011;24338;48.280;10.970;2023-04-25T05:27:54;5.53;;;2.92;;
38567;SDS011;24338;48.280;10.970;2023-04-25T05:30:20;5.15;;;2.75;;
38567;SDS011;24338;48.280;10.970;2023-04-25T05:32:47;5.15;;;2.63;;
38567;SDS011;24338;48.280;10.970;2023-04-25T05:35:14;6.50;;;2.20;;
38567;SDS011;24338;48.280;10.970;2023-04-25T05:37:41;4.68;;;2.75;;
38567;SDS011;24338;48.280;10.970;2023-04-25T05:40:08;5.00;;;2.60;;
38567;SDS011;24338;48.280;10.970;2023-04-25T05:42:39;6.57;;;2.78;;
38567;SDS011;24338;48.280;10.970;2023-04-25T05:45:06;6.68;;;2.10;;
38567;SDS011;24338;48.280;10.970;2023-04-25T05:47:33;5.70;;;2.88;;
38567;SDS011;24338;48.280;10.970;2023-04-25T05:50:00;5.78;;;2.60;;
38567;SDS011;24338;48.280;10.970;2023-04-25T05:52:27;6.03;;;2.83;;
38567;SDS011;24338;48.280;10.970;2023-04-25T05:54:54;3.63;;;2.20;;
38567;SDS011;24338;48.280;10.970;2023-04-25T05:57:24;4.22;;;2.22;;
38567;SDS011;24338;48.280;10.970;2023-04-25T05:59:54;4.97;;;2.20;;
38567;SDS011;24338;48.280;10.970;2023-04-25T06:02:20;9.23;;;2.38;;
38567;SDS011;24338;48.280;10.970;2023-04-25T06:04:51;8.18;;;2.92;;
38567;SDS011;24338;48.280;10.970;2023-04-25T06:07:20;7.53;;;2.42;;
38567;SDS011;24338;48.280;10.970;2023-04-25T06:09:46;4.03;;;2.35;;
38567;SDS011;24338;48.280;10.970;2023-04-25T06:12:13;5.32;;;2.00;;
38567;SDS011;24338;48.280;10.970;2023-04-25T06:14:40;4.57;;;2.10;;
38567;SDS011;24338;48.280;10.970;2023-04-25T06:17:07;7.82;;;2.92;;
38567;SDS011;24338;48.280;10.970;2023-04-25T06:19:35;6.30;;;3.00;;
38567;SDS011;24338;48.280;10.970;2023-04-25T06:22:02;8.18;;;2.60;;
38567;SDS011;24338;48.280;10.970;2023-04-25T06:24:29;6.07;;;2.00;;
38567;SDS011;24338;48.280;10.970;2023-04-25T06:26:56;5.32;;;2.33;;
38567;SDS011;24338;48.280;10.970;2023-04-25T06:29:23;5.13;;;2.28;;
38567;SDS011;24338;48.280;10.970;2023-04-25T06:31:50;5.50;;;2.13;;
38567;SDS011;24338;48.280;10.970;2023-04-25T06:34:17;5.07;;;1.95;;
38567;SDS011;24338;48.280;10.970;2023-04-25T06:36:44;6.03;;;1.90;;
38567;SDS011;24338;48.280;10.970;2023-04-25T06:39:10;5.03;;;1.45;;
38567;SDS011;24338;48.280;10.970;2023-04-25T06:41:37;6.65;;;3.03;;
38567;SDS011;24338;48.280;10.970;2023-04-25T06:44:04;4.38;;;1.73;;
38567;SDS011;24338;48.280;10.970;2023-04-25T06:46:33;5.00;;;1.75;;
38567;SDS011;24338;48.280;10.970;2023-04-25T06:49:00;4.35;;;1.65;;
38567;SDS011;24338;48.280;10.970;2023-04-25T06:51:27;7.63;;;1.95;;
38567;SDS011;24338;48.280;10.970;2023-04-25T06:53:58;4.90;;;2.47;;
38567;SDS011;24338;48.280;10.970;2023-04-25T06:56:26;4.45;;;1.80;;
38567;SDS011;24338;48.280;10.970;2023-04-25T06:58:55;3.17;;;1.33;;
38567;SDS011;24338;48.280;10.970;2023-04-25T07:01:22;2.45;;;1.48;;
38567;SDS011;24338;48.280;10.970;2023-04-25T07:03:49;4.30;;;1.55;;
38567;SDS011;24338;48.280;10.970;2023-04-25T07:06:18;5.22;;;1.77;;
38567;SDS011;24338;48.280;10.970;2023-04-25T07:08:45;4.97;;;1.15;;
38567;SDS011;24338;48.280;10.970;2023-04-25T07:11:12;4.53;;;1.40;;
38567;SDS011;24338;48.280;10.970;2023-04-25T07:13:39;3.13;;;1.45;;
38567;SDS011;24338;48.280;10.970;2023-04-25T07:16:06;3.17;;;1.30;;
38567;SDS011;24338;48.280;10.970;2023-04-25T07:18:33;8.02;;;1.65;;
38567;SDS011;24338;48.280;10.970;2023-04-25T07:20:59;7.53;;;1.48;;
38567;SDS011;24338;48.280;10.970;2023-04-25T07:23:26;6.07;;;1.48;;
38567;SDS011;24338;48.280;10.970;2023-04-25T07:25:53;4.90;;;1.55;;
38567;SDS011;24338;48.280;10.970;2023-04-25T07:28:20;5.57;;;1.42;;
38567;SDS011;24338;48.280;10.970;2023-04-25T07:30:49;3.60;;;1.33;;
38567;SDS011;24338;48.280;10.970;2023-04-25T07:33:15;4.47;;;1.55;;
38567;SDS011;24338;48.280;10.970;2023-04-25T07:35:43;5.03;;;1.40;;
38567;SDS011;24338;48.280;10.970;2023-04-25T07:38:10;2.95;;;1.38;;
38567;SDS011;24338;48.280;10.970;2023-04-25T07:40:36;4.43;;;1.25;;
38567;SDS011;24338;48.280;10.970;2023-04-25T07:43:03;2.28;;;0.80;;
38567;SDS011;24338;48.280;10.970;2023-04-25T07:45:33;4.22;;;0.80;;
38567;SDS011;24338;48.280;10.970;2023-04-25T07:48:00;2.38;;;1.08;;
38567;SDS011;24338;48.280;10.970;2023-04-25T07:50:27;3.55;;;1.48;;
38567;SDS011;24338;48.280;10.970;2023-04-25T07:52:54;3.25;;;1.15;;
38567;SDS011;24338;48.280;10.970;2023-04-25T07:55:21;3.15;;;1.10;;
38567;SDS011;24338;48.280;10.970;2023-04-25T07:57:48;6.78;;;1.27;;
38567;SDS011;24338;48.280;10.970;2023-04-25T08:00:15;4.75;;;1.60;;
38567;SDS011;24338;48.280;10.970;2023-04-25T08:02:42;4.40;;;1.20;;
38567;SDS011;24338;48.280;10.970;2023-04-25T08:05:09;4.97;;;1.38;;
38567;SDS011;24338;48.280;10.970;2023-04-25T08:07:38;3.30;;;1.35;;
38567;SDS011;24338;48.280;10.970;2023-04-25T08:10:05;5.13;;;1.35;;
38567;SDS011;24338;48.280;10.970;2023-04-25T08:12:32;5.18;;;1.30;;
38567;SDS011;24338;48.280;10.970;2023-04-25T08:14:59;4.38;;;1.25;;
38567;SDS011;24338;48.280;10.970;2023-04-25T08:17:26;2.90;;;1.20;;
38567;SDS011;24338;48.280;10.970;2023-04-25T08:19:53;2.78;;;1.10;;
38567;SDS011;24338;48.280;10.970;2023-04-25T08:22:21;3.22;;;1.33;;
38567;SDS011;24338;48.280;10.970;2023-04-25T08:24:48;3.63;;;1.30;;
38567;SDS011;24338;48.280;10.970;2023-04-25T08:27:15;8.88;;;1.08;;
38567;SDS011;24338;48.280;10.970;2023-04-25T08:29:42;2.17;;;0.88;;
38567;SDS011;24338;48.280;10.970;2023-04-25T08:32:09;4.03;;;0.98;;
38567;SDS011;24338;48.280;10.970;2023-04-25T08:34:35;2.83;;;1.20;;
38567;SDS011;24338;48.280;10.970;2023-04-25T08:37:04;4.22;;;0.90;;
38567;SDS011;24338;48.280;10.970;2023-04-25T08:39:31;2.22;;;0.90;;
38567;SDS011;24338;48.280;10.970;2023-04-25T08:41:58;3.42;;;1.00;;
38567;SDS011;24338;48.280;10.970;2023-04-25T08:44:27;1.90;;;0.90;;
38567;SDS011;24338;48.280;10.970;2023-04-25T08:46:54;2.45;;;0.98;;
38567;SDS011;24338;48.280;10.970;2023-04-25T08:49:22;4.18;;;0.85;;
38567;SDS011;24338;48.280;10.970;2023-04-25T08:51:50;4.80;;;1.02;;
38567;SDS011;24338;48.280;10.970;2023-04-25T08:54:18;3.10;;;0.80;;
38567;SDS011;24338;48.280;10.970;2023-04-25T08:57:01;4.05;;;1.17;;
38567;SDS011;24338;48.280;10.970;2023-04-25T08:59:31;2.42;;;0.93;;
38567;SDS011;24338;48.280;10.970;2023-04-25T09:01:58;1.55;;;0.95;;
38567;SDS011;24338;48.280;10.970;2023-04-25T09:04:26;1.85;;;0.80;;
38567;SDS011;24338;48.280;10.970;2023-04-25T09:06:54;2.88;;;1.05;;
38567;SDS011;24338;48.280;10.970;2023-04-25T09:09:20;2.78;;;1.20;;
38567;SDS011;24338;48.280;10.970;2023-04-25T09:11:47;4.10;;;1.42;;
38567;SDS011;24338;48.280;10.970;2023-04-25T09:14:15;2.42;;;0.93;;
38567;SDS011;24338;48.280;10.970;2023-04-25T09:19:23;4.10;;;1.25;;
38567;SDS011;24338;48.280;10.970;2023-04-25T09:22:05;2.95;;;0.85;;
38567;SDS011;24338;48.280;10.970;2023-04-25T09:24:39;3.90;;;1.25;;
38567;SDS011;24338;48.280;10.970;2023-04-25T09:27:12;3.35;;;0.93;;
38567;SDS011;24338;48.280;10.970;2023-04-25T09:29:44;4.78;;;1.00;;
38567;SDS011;24338;48.280;10.970;2023-04-25T09:32:19;2.30;;;0.70;;
38567;SDS011;24338;48.280;10.970;2023-04-25T09:34:48;3.90;;;1.00;;
38567;SDS011;24338;48.280;10.970;2023-04-25T09:37:17;4.13;;;1.10;;
38567;SDS011;24338;48.280;10.970;2023-04-25T09:39:55;1.92;;;1.00;;
38567;SDS011;24338;48.280;10.970;2023-04-25T09:42:28;4.97;;;1.90;;
38567;SDS011;24338;48.280;10.970;2023-04-25T09:44:58;5.40;;;1.80;;
38567;SDS011;24338;48.280;10.970;2023-04-25T09:47:28;3.47;;;0.93;;
38567;SDS011;24338;48.280;10.970;2023-04-25T09:50:04;4.93;;;1.75;;
38567;SDS011;24338;48.280;10.970;2023-04-25T09:53:10;1.95;;;0.93;;
38567;SDS011;24338;48.280;10.970;2023-04-25T09:56:10;3.72;;;1.90;;
38567;SDS011;24338;48.280;10.970;2023-04-25T09:58:48;2.53;;;1.23;;
38567;SDS011;24338;48.280;10.970;2023-04-25T10:01:18;2.70;;;0.82;;
38567;SDS011;24338;48.280;10.970;2023-04-25T10:03:47;3.22;;;0.95;;
38567;SDS011;24338;48.280;10.970;2023-04-25T10:06:18;3.13;;;0.88;;
38567;SDS011;24338;48.280;10.970;2023-04-25T10:08:48;1.35;;;0.68;;
38567;SDS011;24338;48.280;10.970;2023-04-25T10:11:17;2.67;;;1.08;;
38567;SDS011;24338;48.280;10.970;2023-04-25T10:13:44;2.22;;;0.80;;
38567;SDS011;24338;48.280;10.970;2023-04-25T10:16:12;2.92;;;0.60;;
38567;SDS011;24338;48.280;10.970;2023-04-25T10:18:39;3.22;;;0.70;;
38567;SDS011;24338;48.280;10.970;2023-04-25T10:21:06;2.50;;;0.60;;
38567;SDS011;24338;48.280;10.970;2023-04-25T10:23:36;1.10;;;0.60;;
38567;SDS011;24338;48.280;10.970;2023-04-25T10:26:04;2.65;;;0.93;;
38567;SDS011;24338;48.280;10.970;2023-04-25T10:28:44;1.45;;;0.60;;
38567;SDS011;24338;48.280;10.970;2023-04-25T10:31:21;2.20;;;1.05;;
38567;SDS011;24338;48.280;10.970;2023-04-25T10:33:48;3.63;;;0.80;;
38567;SDS011;24338;48.280;10.970;2023-04-25T10:36:19;1.75;;;0.60;;
38567;SDS011;24338;48.280;10.970;2023-04-25T10:38:49;3.72;;;0.55;;
38567;SDS011;24338;48.280;10.970;2023-04-25T10:41:17;2.13;;;0.50;;
38567;SDS011;24338;48.280;10.970;2023-04-25T10:43:46;4.88;;;0.60;;
38567;SDS011;24338;48.280;10.970;2023-04-25T10:46:29;1.60;;;0.50;;
38567;SDS011;24338;48.280;10.970;2023-04-25T10:49:01;2.65;;;0.50;;
38567;SDS011;24338;48.280;10.970;2023-04-25T10:51:29;3.13;;;0.65;;
38567;SDS011;24338;48.280;10.970;2023-04-25T10:54:18;3.45;;;0.80;;
38567;SDS011;24338;48.280;10.970;2023-04-25T10:56:48;1.52;;;0.50;;
38567;SDS011;24338;48.280;10.970;2023-04-25T10:59:17;2.30;;;0.40;;
38567;SDS011;24338;48.280;10.970;2023-04-25T11:01:47;0.95;;;0.47;;
38567;SDS011;24338;48.280;10.970;2023-04-25T11:04:24;1.33;;;0.65;;
38567;SDS011;24338;48.280;10.970;2023-04-25T11:07:03;3.95;;;0.47;;
38567;SDS011;24338;48.280;10.970;2023-04-25T11:09:40;1.02;;;0.65;;
38567;SDS011;24338;48.280;10.970;2023-04-25T11:12:08;2.80;;;0.60;;
38567;SDS011;24338;48.280;10.970;2023-04-25T11:14:37;3.22;;;1.30;;
38567;SDS011;24338;48.280;10.970;2023-04-25T11:17:05;2.67;;;1.25;;
38567;SDS011;24338;48.280;10.970;2023-04-25T11:19:35;6.25;;;1.52;;
38567;SDS011;24338;48.280;10.970;2023-04-25T11:22:02;2.67;;;1.30;;
38567;SDS011;24338;48.280;10.970;2023-04-25T11:24:30;4.40;;;1.48;;
38567;SDS011;24338;48.280;10.970;2023-04-25T11:27:01;2.90;;;1.00;;
38567;SDS011;24338;48.280;10.970;2023-04-25T11:29:30;3.05;;;1.00;;
38567;SDS011;24338;48.280;10.970;2023-04-25T11:31:58;3.42;;;1.67;;
38567;SDS011;24338;48.280;10.970;2023-04-25T11:34:26;6.75;;;1.23;;
38567;SDS011;24338;48.280;10.970;2023-04-25T11:36:57;3.33;;;1.33;;
38567;SDS011;24338;48.280;10.970;2023-04-25T11:39:24;4.03;;;1.25;;
38567;SDS011;24338;48.280;10.970;2023-04-25T11:41:52;2.60;;;1.15;;
38567;SDS011;24338;48.280;10.970;2023-04-25T11:44:20;4.15;;;1.25;;
38567;SDS011;24338;48.280;10.970;2023-04-25T11:46:47;2.78;;;0.80;;
38567;SDS011;24338;48.280;10.970;2023-04-25T11:49:15;3.22;;;0.90;;
38567;SDS011;24338;48.280;10.970;2023-04-25T11:51:45;4.15;;;1.02;;
38567;SDS011;24338;48.280;10.970;2023-04-25T11:54:13;1.30;;;0.60;;
38567;SDS011;24338;48.280;10.970;2023-04-25T11:56:43;1.67;;;0.75;;
38567;SDS011;24338;48.280;10.970;2023-04-25T11:59:11;3.42;;;1.02;;
38567;SDS011;24338;48.280;10.970;2023-04-25T12:01:40;2.75;;;0.77;;
38567;SDS011;24338;48.280;10.970;2023-04-25T12:04:17;2.53;;;0.73;;
38567;SDS011;24338;48.280;10.970;2023-04-25T12:06:45;3.20;;;0.77;;
38567;SDS011;24338;48.280;10.970;2023-04-25T12:09:15;4.65;;;1.38;;
38567;SDS011;24338;48.280;10.970;2023-04-25T12:11:48;3.22;;;0.95;;
38567;SDS011;24338;48.280;10.970;2023-04-25T12:14:29;2.80;;;1.10;;
38567;SDS011;24338;48.280;10.970;2023-04-25T12:17:00;1.13;;;0.60;;
38567;SDS011;24338;48.280;10.970;2023-04-25T12:19:33;3.33;;;1.30;;
38567;SDS011;24338;48.280;10.970;2023-04-25T12:22:01;2.95;;;0.98;;
38567;SDS011;24338;48.280;10.970;2023-04-25T12:24:29;4.38;;;1.00;;
38567;SDS011;24338;48.280;10.970;2023-04-25T12:27:04;3.97;;;1.23;;
38567;SDS011;24338;48.280;10.970;2023-04-25T12:29:34;2.53;;;1.10;;
38567;SDS011;24338;48.280;10.970;2023-04-25T12:32:15;2.72;;;1.48;;
38567;SDS011;24338;48.280;10.970;2023-04-25T12:34:42;3.60;;;1.50;;
38567;SDS011;24338;48.280;10.970;2023-04-25T12:37:09;3.20;;;1.15;;
38567;SDS011;24338;48.280;10.970;2023-04-25T12:39:35;1.88;;;1.00;;
38567;SDS011;24338;48.280;10.970;2023-04-25T12:42:02;1.58;;;0.80;;
38567;SDS011;24338;48.280;10.970;2023-04-25T12:44:33;1.45;;;0.70;;
38567;SDS011;24338;48.280;10.970;2023-04-25T12:47:00;4.57;;;0.90;;
38567;SDS011;24338;48.280;10.970;2023-04-25T12:49:27;2.08;;;0.90;;
38567;SDS011;24338;48.280;10.970;2023-04-25T12:51:54;1.83;;;0.68;;
38567;SDS011;24338;48.280;10.970;2023-04-25T12:54:21;1.00;;;0.60;;
38567;SDS011;24338;48.280;10.970;2023-04-25T12:56:47;1.92;;;0.50;;
38567;SDS011;24338;48.280;10.970;2023-04-25T12:59:14;1.42;;;0.70;;
38567;SDS011;24338;48.280;10.970;2023-04-25T13:01:41;2.13;;;0.55;;
38567;SDS011;24338;48.280;10.970;2023-04-25T13:04:09;0.73;;;0.40;;
38567;SDS011;24338;48.280;10.970;2023-04-25T13:06:36;1.25;;;0.50;;
38567;SDS011;24338;48.280;10.970;2023-04-25T13:09:03;1.73;;;0.73;;
38567;SDS011;24338;48.280;10.970;2023-04-25T13:11:29;1.20;;;0.50;;
38567;SDS011;24338;48.280;10.970;2023-04-25T13:13:57;1.35;;;0.60;;
38567;SDS011;24338;48.280;10.970;2023-04-25T13:16:24;1.98;;;0.80;;
38567;SDS011;24338;48.280;10.970;2023-04-25T13:18:51;2.22;;;0.85;;
38567;SDS011;24338;48.280;10.970;2023-04-25T13:21:17;1.52;;;0.52;;
38567;SDS011;24338;48.280;10.970;2023-04-25T13:23:44;2.05;;;0.77;;
38567;SDS011;24338;48.280;10.970;2023-04-25T13:26:12;2.30;;;1.00;;
38567;SDS011;24338;48.280;10.970;2023-04-25T13:28:39;4.05;;;0.80;;
38567;SDS011;24338;48.280;10.970;2023-04-25T13:31:09;2.15;;;0.70;;
38567;SDS011;24338;48.280;10.970;2023-04-25T13:33:36;2.17;;;0.90;;
38567;SDS011;24338;48.280;10.970;2023-04-25T13:36:03;3.00;;;1.05;;
38567;SDS011;24338;48.280;10.970;2023-04-25T13:38:30;2.35;;;0.90;;
38567;SDS011;24338;48.280;10.970;2023-04-25T13:40:57;2.40;;;0.88;;
38567;SDS011;24338;48.280;10.970;2023-04-25T13:43:24;2.30;;;0.95;;
38567;SDS011;24338;48.280;10.970;2023-04-25T13:46:00;2.47;;;0.90;;
38567;SDS011;24338;48.280;10.970;2023-04-25T13:48:32;2.38;;;1.15;;
38567;SDS011;24338;48.280;10.970;2023-04-25T13:51:16;1.98;;;0.80;;
38567;SDS011;24338;48.280;10.970;2023-04-25T13:54:24;3.00;;;1.23;;
38567;SDS011;24338;48.280;10.970;2023-04-25T13:56:56;1.92;;;1.02;;
38567;SDS011;24338;48.280;10.970;2023-04-25T13:59:25;1.77;;;0.90;;
38567;SDS011;24338;48.280;10.970;2023-04-25T14:02:52;1.80;;;0.88;;
38567;SDS011;24338;48.280;10.970;2023-04-25T14:08:41;2.90;;;0.80;;
38567;SDS011;24338;48.280;10.970;2023-04-25T14:12:15;3.55;;;1.63;;
38567;SDS011;24338;48.280;10.970;2023-04-25T14:14:42;2.25;;;0.80;;
38567;SDS011;24338;48.280;10.970;2023-04-25T14:17:14;1.58;;;0.70;;
38567;SDS011;24338;48.280;10.970;2023-04-25T14:19:41;1.35;;;0.80;;
38567;SDS011;24338;48.280;10.970;2023-04-25T14:22:12;1.88;;;0.68;;
38567;SDS011;24338;48.280;10.970;2023-04-25T14:24:44;1.98;;;0.80;;
38567;SDS011;24338;48.280;10.970;2023-04-25T14:27:11;1.33;;;0.60;;
38567;SDS011;24338;48.280;10.970;2023-04-25T14:29:38;1.63;;;0.80;;
38567;SDS011;24338;48.280;10.970;2023-04-25T14:32:05;2.13;;;0.77;;
38567;SDS011;24338;48.280;10.970;2023-04-25T14:34:32;2.00;;;0.63;;
38567;SDS011;24338;48.280;10.970;2023-04-25T14:36:59;5.28;;;0.90;;
38567;SDS011;24338;48.280;10.970;2023-04-25T14:39:26;1.77;;;0.80;;
38567;SDS011;24338;48.280;10.970;2023-04-25T14:41:53;2.67;;;0.98;;
38567;SDS011;24338;48.280;10.970;2023-04-25T14:44:20;2.55;;;0.80;;
38567;SDS011;24338;48.280;10.970;2023-04-25T14:46:47;1.77;;;0.77;;
38567;SDS011;24338;48.280;10.970;2023-04-25T14:49:14;1.88;;;0.60;;
38567;SDS011;24338;48.280;10.970;2023-04-25T14:51:41;2.33;;;0.90;;
38567;SDS011;24338;48.280;10.970;2023-04-25T14:54:07;2.75;;;0.80;;
38567;SDS011;24338;48.280;10.970;2023-04-25T14:56:34;2.05;;;1.02;;
38567;SDS011;24338;48.280;10.970;2023-04-25T14:59:01;2.15;;;0.90;;
38567;SDS011;24338;48.280;10.970;2023-04-25T15:01:28;2.10;;;1.10;;
38567;SDS011;24338;48.280;10.970;2023-04-25T15:03:55;2.15;;;1.10;;
38567;SDS011;24338;48.280;10.970;2023-04-25T15:06:24;2.92;;;1.30;;